Time;durP1;ratioP1;P1;durP2;ratioP2;P2;SDS_P1;SDS_P2;PMS_P1;PMS_P2;Temp;Humidity;BMP_temperature;BMP_pressure;BME280_temperature;BME280_humidity;BME280_pressure;Samples;Min_cycle;Max_cycle;Signal;HPM_P1;HPM_P2
2021/03/21 00:00:52;;;;;;;9.50;4.53;;;;;;;3.69;36.59;97286.44;5073556;28;20472;-67
2021/03/21 00:03:19;;;;;;;8.00;4.57;;;;;;;3.62;36.62;97283.44;5072532;28;20189;-67
2021/03/21 00:05:46;;;;;;;6.80;4.30;;;;;;;3.48;36.64;97278.38;5035470;28;20443;-70
2021/03/21 00:08:23;;;;;;;7.43;5.20;;;;;;;3.73;36.40;97272.34;5058009;28;20441;-72
2021/03/21 00:10:51;;;;;;;8.80;5.23;;;;;;;3.69;36.87;97279.50;5071125;28;20428;-71
2021/03/21 00:13:18;;;;;;;4.60;4.20;;;;;;;3.44;36.60;97270.00;5073629;28;20513;-70
2021/03/21 00:15:44;;;;;;;6.83;4.77;;;;;;;4.05;35.86;97271.81;5072284;28;20443;-70
2021/03/21 00:18:10;;;;;;;6.30;4.37;;;;;;;4.20;35.47;97271.63;5074781;28;20504;-71
2021/03/21 00:20:37;;;;;;;5.77;4.70;;;;;;;4.27;35.16;97267.69;5056497;28;20433;-73
2021/03/21 00:23:03;;;;;;;6.03;4.80;;;;;;;4.40;35.32;97273.63;5075121;28;20421;-70
2021/03/21 00:25:31;;;;;;;11.63;4.90;;;;;;;3.74;36.03;97279.16;5021112;28;20436;-71
2021/03/21 00:27:57;;;;;;;13.83;4.60;;;;;;;3.96;35.86;97275.91;5065544;28;20460;-70
2021/03/21 00:30:30;;;;;;;6.60;4.53;;;;;;;3.87;36.05;97273.13;5074679;28;20455;-70
2021/03/21 00:32:57;;;;;;;6.40;4.77;;;;;;;3.51;36.63;97266.06;5074273;28;20486;-73
2021/03/21 00:35:23;;;;;;;6.53;4.87;;;;;;;3.80;36.37;97265.75;5048536;28;20439;-70
2021/03/21 00:37:49;;;;;;;9.47;4.30;;;;;;;3.64;36.95;97267.78;5072846;28;20817;-70
2021/03/21 00:40:19;;;;;;;8.30;5.20;;;;;;;3.31;37.32;97270.03;5065516;28;20459;-70
2021/03/21 00:42:44;;;;;;;7.30;4.13;;;;;;;3.57;36.96;97257.03;5074255;28;20428;-69
2021/03/21 00:45:19;;;;;;;7.83;5.30;;;;;;;3.48;37.66;97261.09;5075728;28;20445;-71
2021/03/21 00:47:49;;;;;;;7.23;5.40;;;;;;;3.49;37.06;97256.72;5039983;28;20205;-70
2021/03/21 00:50:20;;;;;;;8.60;4.93;;;;;;;3.42;37.20;97258.09;5073877;28;20896;-70
2021/03/21 00:52:46;;;;;;;10.10;5.20;;;;;;;3.03;38.51;97258.09;5055942;28;20507;-70
2021/03/21 00:55:13;;;;;;;10.00;5.20;;;;;;;3.32;38.21;97252.69;5071872;28;20912;-71
2021/03/21 00:57:39;;;;;;;6.77;4.73;;;;;;;3.42;38.13;97248.53;5068870;28;20290;-71
2021/03/21 01:00:10;;;;;;;6.90;4.97;;;;;;;3.57;37.78;97246.66;5055861;28;20425;-70
2021/03/21 01:02:36;;;;;;;7.00;5.00;;;;;;;3.43;37.87;97242.41;5077451;28;20425;-71
2021/03/21 01:05:06;;;;;;;8.13;4.97;;;;;;;3.49;37.96;97243.75;5074404;28;20481;-71
2021/03/21 01:07:32;;;;;;;7.73;5.03;;;;;;;3.59;37.55;97236.19;5039030;28;20213;-70
2021/03/21 01:09:57;;;;;;;6.93;4.97;;;;;;;3.59;37.35;97236.19;5045660;28;20661;-70
2021/03/21 01:12:23;;;;;;;6.77;4.63;;;;;;;3.26;38.03;97235.00;5066402;28;20221;-71
2021/03/21 01:14:49;;;;;;;7.90;4.70;;;;;;;2.92;38.45;97236.34;5072277;28;20182;-71
2021/03/21 01:17:14;;;;;;;6.47;4.90;;;;;;;3.60;37.39;97224.88;5056483;28;20199;-71
2021/03/21 01:19:40;;;;;;;6.07;4.60;;;;;;;3.64;37.27;97223.72;5075452;28;20658;-71
2021/03/21 01:22:06;;;;;;;8.10;4.70;;;;;;;3.46;37.33;97216.31;5063841;28;20265;-71
2021/03/21 01:24:31;;;;;;;8.00;4.60;;;;;;;3.73;36.92;97211.84;5071313;28;20548;-71
2021/03/21 01:26:57;;;;;;;6.93;4.10;;;;;;;3.71;37.31;97209.38;5074102;28;20230;-71
2021/03/21 01:29:23;;;;;;;7.43;5.17;;;;;;;3.56;37.65;97200.09;5071669;28;20212;-72
2021/03/21 01:31:49;;;;;;;9.20;4.93;;;;;;;3.80;37.08;97207.91;5073081;28;20203;-70
2021/03/21 01:34:15;;;;;;;7.27;4.93;;;;;;;3.46;37.71;97216.31;5038976;28;20268;-70
2021/03/21 01:36:40;;;;;;;9.80;4.13;;;;;;;3.52;37.83;97210.69;5071837;28;20983;-71
2021/03/21 01:39:19;;;;;;;6.57;5.13;;;;;;;3.48;37.63;97214.44;5065200;28;20183;-71
2021/03/21 01:41:57;;;;;;;7.27;4.93;;;;;;;3.57;37.89;97202.59;5064035;28;20182;-69
2021/03/21 01:44:23;;;;;;;6.17;4.70;;;;;;;3.53;38.11;97196.78;5071370;28;20423;-71
2021/03/21 01:47:05;;;;;;;7.27;4.90;;;;;;;3.23;38.19;97205.78;5072367;28;21014;-70
2021/03/21 01:49:38;;;;;;;5.43;4.47;;;;;;;3.36;38.11;97192.78;5072019;28;20424;-71
2021/03/21 01:52:06;;;;;;;8.97;4.90;;;;;;;3.51;37.64;97196.09;5054271;28;21280;-71
2021/03/21 01:54:32;;;;;;;10.00;4.53;;;;;;;3.55;37.73;97194.09;5071512;28;20454;-70
2021/03/21 01:56:59;;;;;;;7.10;4.93;;;;;;;3.26;38.40;97194.38;5070763;28;20437;-70
2021/03/21 01:59:30;;;;;;;7.17;4.93;;;;;;;3.18;38.44;97187.13;5070626;28;20452;-70
2021/03/21 02:02:00;;;;;;;9.90;5.43;;;;;;;3.15;38.64;97189.13;5071145;28;20424;-71
2021/03/21 02:04:25;;;;;;;8.53;4.70;;;;;;;3.50;38.24;97188.41;5075518;28;20428;-72
2021/03/21 02:07:34;;;;;;;6.93;4.80;;;;;;;3.53;38.06;97185.59;5067922;28;20986;-70
2021/03/21 02:10:15;;;;;;;4.50;4.07;;;;;;;3.45;37.82;97174.97;5069989;28;20194;-70
2021/03/21 02:13:05;;;;;;;6.20;4.13;;;;;;;3.30;37.77;97179.44;5073586;28;20471;-72
2021/03/21 02:15:38;;;;;;;8.20;4.33;;;;;;;3.25;37.91;97178.94;5060136;28;20429;-70
2021/03/21 02:18:15;;;;;;;6.10;4.60;;;;;;;3.09;38.20;97174.00;5072688;28;20452;-70
2021/03/21 02:20:44;;;;;;;7.53;4.57;;;;;;;3.32;37.75;97165.47;5075494;28;20427;-72
2021/03/21 02:23:57;;;;;;;7.73;5.17;;;;;;;3.74;37.36;97156.47;5063922;28;20428;-72
2021/03/21 02:26:49;;;;;;;11.60;4.60;;;;;;;3.67;37.33;97166.47;5071895;28;20420;-70
2021/03/21 02:29:21;;;;;;;10.23;4.30;;;;;;;3.87;37.46;97154.66;5061524;28;20437;-71
2021/03/21 02:31:51;;;;;;;5.17;4.07;;;;;;;3.74;37.70;97156.47;5079856;28;20456;-70
2021/03/21 02:34:27;;;;;;;8.00;4.90;;;;;;;3.77;38.15;97149.34;5076543;28;20416;-71
2021/03/21 02:36:57;;;;;;;5.10;4.50;;;;;;;3.72;37.35;97154.00;5075192;28;20447;-71
2021/03/21 02:39:27;;;;;;;4.80;4.17;;;;;;;3.38;38.44;97153.84;5087805;28;20420;-72
2021/03/21 02:41:59;;;;;;;5.80;4.70;;;;;;;3.61;37.84;97141.00;5081696;28;20413;-70
2021/03/21 02:44:32;;;;;;;8.77;4.80;;;;;;;3.87;37.25;97140.88;5060751;28;20414;-70
2021/03/21 02:47:05;;;;;;;7.80;4.47;;;;;;;3.57;37.64;97137.81;5084787;28;20468;-70
2021/03/21 02:49:51;;;;;;;7.17;4.70;;;;;;;3.49;37.66;97143.53;5077479;28;20492;-71
2021/03/21 02:52:26;;;;;;;8.67;4.50;;;;;;;3.42;38.50;97147.47;5072462;28;20463;-69
2021/03/21 02:55:04;;;;;;;11.63;4.87;;;;;;;3.69;37.70;97143.84;5080251;28;20499;-71
2021/03/21 02:57:43;;;;;;;7.20;5.00;;;;;;;3.45;38.24;97130.91;5071025;28;20444;-70
2021/03/21 03:00:10;;;;;;;6.10;4.60;;;;;;;3.66;37.74;97128.50;5075384;28;20466;-70
2021/03/21 03:02:46;;;;;;;5.63;4.20;;;;;;;3.65;38.16;97117.34;5074362;28;20822;-71
2021/03/21 03:05:33;;;;;;;6.73;4.50;;;;;;;3.42;38.43;97125.94;5065526;28;20519;-70
2021/03/21 03:08:13;;;;;;;6.30;4.50;;;;;;;3.31;38.54;97124.09;5069611;28;20449;-71
2021/03/21 03:10:44;;;;;;;5.03;4.07;;;;;;;3.39;38.51;97116.63;5073992;28;20412;-71
2021/03/21 03:13:19;;;;;;;6.00;4.50;;;;;;;3.33;38.53;97123.06;5054522;28;20457;-70
2021/03/21 03:15:45;;;;;;;7.20;4.53;;;;;;;3.45;38.54;97115.38;5070567;28;20428;-71
2021/03/21 03:18:23;;;;;;;5.60;4.40;;;;;;;3.41;38.47;97116.50;5073641;28;20514;-70
2021/03/21 03:20:52;;;;;;;7.10;5.47;;;;;;;3.44;38.98;97124.88;5069211;28;20191;-68
2021/03/21 03:23:21;;;;;;;5.80;4.60;;;;;;;3.46;39.25;97110.06;5074047;28;20428;-67
2021/03/21 03:25:55;;;;;;;6.23;4.73;;;;;;;3.44;39.13;97105.94;5071804;28;20428;-66
2021/03/21 03:28:44;;;;;;;6.03;4.33;;;;;;;3.72;38.90;97104.75;5072715;28;20463;-66
2021/03/21 03:31:32;;;;;;;5.40;4.23;;;;;;;3.69;38.88;97097.19;5067914;28;20420;-66
2021/03/21 03:33:57;;;;;;;9.17;4.33;;;;;;;3.56;38.95;97089.50;5074163;28;20431;-65
2021/03/21 03:36:23;;;;;;;10.63;4.90;;;;;;;3.52;39.67;97101.00;5071095;28;20503;-67
2021/03/21 03:38:49;;;;;;;6.20;4.57;;;;;;;3.40;39.54;97091.53;5072328;28;20187;-66
2021/03/21 03:41:23;;;;;;;8.30;4.33;;;;;;;3.24;40.10;97097.81;5073225;28;20274;-66
2021/03/21 03:44:28;;;;;;;7.43;4.90;;;;;;;2.89;40.76;97093.34;5073322;28;20500;-66
2021/03/21 03:47:16;;;;;;;6.80;4.87;;;;;;;3.34;39.98;97088.44;5069557;28;20449;-67
2021/03/21 03:50:08;;;;;;;7.10;5.00;;;;;;;3.38;40.21;97083.88;5073597;28;20916;-66
2021/03/21 03:52:51;;;;;;;5.63;4.50;;;;;;;3.46;40.47;97083.34;5063934;28;20864;-67
2021/03/21 03:55:23;;;;;;;6.03;4.63;;;;;;;3.13;40.82;97085.63;5058379;28;20412;-67
2021/03/21 03:57:52;;;;;;;10.63;5.63;;;;;;;3.19;41.47;97087.78;5066693;28;20450;-66
2021/03/21 04:00:25;;;;;;;6.67;4.57;;;;;;;3.00;41.40;97096.00;5072022;28;20428;-66
2021/03/21 04:03:06;;;;;;;7.07;5.07;;;;;;;3.27;41.07;97100.19;5070649;28;20512;-66
2021/03/21 04:05:40;;;;;;;6.60;4.60;;;;;;;3.23;41.57;97088.38;5065870;28;20507;-66
2021/03/21 04:08:18;;;;;;;8.00;4.70;;;;;;;3.31;41.40;97086.09;5073368;28;20802;-66
2021/03/21 04:11:21;;;;;;;7.67;5.20;;;;;;;3.32;41.02;97084.31;5071885;28;20455;-67
2021/03/21 04:14:05;;;;;;;8.37;4.70;;;;;;;3.35;41.40;97078.91;5072649;28;20432;-65
2021/03/21 04:16:35;;;;;;;6.73;5.00;;;;;;;3.28;41.61;97073.34;5071629;28;20502;-67
2021/03/21 04:19:05;;;;;;;6.30;4.63;;;;;;;3.30;41.33;97075.81;5069672;28;20798;-67
2021/03/21 04:21:54;;;;;;;8.20;4.90;;;;;;;3.30;41.81;97070.63;5069571;28;20888;-67
2021/03/21 04:24:25;;;;;;;8.57;5.00;;;;;;;3.25;41.85;97072.75;5056070;28;20428;-66
2021/03/21 04:27:04;;;;;;;7.33;4.43;;;;;;;3.33;41.64;97065.25;5070350;28;20531;-65
2021/03/21 04:29:35;;;;;;;7.13;4.60;;;;;;;3.29;41.78;97072.41;5071900;28;20920;-66
2021/03/21 04:32:07;;;;;;;9.20;5.00;;;;;;;3.78;41.15;97062.81;5072292;28;20468;-65
2021/03/21 04:34:34;;;;;;;6.80;4.77;;;;;;;3.58;41.75;97064.31;5072575;28;20428;-65
2021/03/21 04:37:00;;;;;;;4.70;3.90;;;;;;;3.87;41.08;97068.28;5070089;28;20879;-66
2021/03/21 04:39:29;;;;;;;5.97;4.80;;;;;;;3.62;41.51;97062.31;5054297;28;20417;-65
2021/03/21 04:42:05;;;;;;;8.43;4.60;;;;;;;3.87;41.32;97063.91;5070060;28;20464;-67
2021/03/21 04:44:34;;;;;;;7.73;5.30;;;;;;;3.86;41.08;97061.44;5072335;28;20466;-66
2021/03/21 04:47:06;;;;;;;8.10;4.80;;;;;;;4.04;40.81;97051.47;5069399;28;21015;-66
2021/03/21 04:49:32;;;;;;;7.10;4.50;;;;;;;3.64;41.71;97053.47;5064502;28;20749;-68
2021/03/21 04:52:12;;;;;;;10.50;4.70;;;;;;;3.45;42.00;97048.00;5052023;28;20484;-67
2021/03/21 04:54:38;;;;;;;6.40;4.60;;;;;;;3.83;41.04;97039.97;5066403;28;20178;-67
2021/03/21 04:57:38;;;;;;;7.13;5.13;;;;;;;3.94;41.04;97046.13;5069660;28;20864;-67
2021/03/21 05:00:32;;;;;;;6.30;4.80;;;;;;;3.89;41.21;97025.72;5043644;28;20429;-66
2021/03/21 05:03:03;;;;;;;6.37;4.43;;;;;;;4.10;41.19;97025.88;5051159;28;20433;-66
2021/03/21 05:05:36;;;;;;;6.87;4.10;;;;;;;4.18;41.21;97034.84;5050173;28;20424;-67
2021/03/21 05:08:07;;;;;;;10.30;5.57;;;;;;;4.30;40.88;97033.91;5049644;28;20468;-67
2021/03/21 05:10:39;;;;;;;5.70;4.70;;;;;;;4.39;40.91;97033.22;5051601;28;20940;-67
2021/03/21 05:13:24;;;;;;;7.10;4.87;;;;;;;4.38;41.26;97036.75;5052188;28;20992;-67
2021/03/21 05:15:51;;;;;;;7.50;5.20;;;;;;;4.33;41.37;97036.28;5049978;28;20421;-66
2021/03/21 05:18:32;;;;;;;6.50;4.73;;;;;;;4.51;40.46;97038.41;5040650;28;20959;-66
2021/03/21 05:21:06;;;;;;;6.17;4.70;;;;;;;4.20;41.60;97039.00;5051621;28;20421;-65
2021/03/21 05:23:43;;;;;;;8.17;5.23;;;;;;;3.81;42.48;97048.81;5051043;28;20417;-67
2021/03/21 05:26:17;;;;;;;7.90;4.90;;;;;;;3.51;42.73;97048.38;5024358;28;20428;-67
2021/03/21 05:28:53;;;;;;;5.90;4.10;;;;;;;3.67;42.43;97050.66;5051171;28;20439;-66
2021/03/21 05:31:20;;;;;;;6.93;4.70;;;;;;;3.69;42.37;97058.31;5050207;28;21008;-65
2021/03/21 05:33:46;;;;;;;5.47;4.33;;;;;;;3.82;42.53;97053.88;5033519;28;20924;-67
2021/03/21 05:36:27;;;;;;;8.50;5.30;;;;;;;3.63;42.79;97056.19;5049738;28;20490;-66
2021/03/21 05:38:58;;;;;;;6.53;4.50;;;;;;;3.76;42.52;97063.88;5050983;28;20517;-67
2021/03/21 05:41:42;;;;;;;7.47;4.80;;;;;;;3.59;43.80;97065.94;5051030;28;20417;-66
2021/03/21 05:44:58;;;;;;;8.53;5.23;;;;;;;3.69;43.33;97063.50;5050236;28;20503;-67
2021/03/21 05:47:42;;;;;;;7.43;5.00;;;;;;;3.88;43.01;97060.38;5044574;28;20449;-65
2021/03/21 05:50:22;;;;;;;6.47;5.40;;;;;;;3.76;43.28;97054.34;5050693;28;20829;-68
2021/03/21 05:52:50;;;;;;;6.90;5.27;;;;;;;3.58;43.40;97056.53;5049968;28;20469;-67
2021/03/21 05:55:37;;;;;;;5.73;5.03;;;;;;;3.72;43.29;97047.72;5050849;28;20429;-67
2021/03/21 05:58:09;;;;;;;5.90;4.70;;;;;;;3.42;44.04;97051.63;5053831;28;20510;-67
2021/03/21 06:00:37;;;;;;;8.00;5.17;;;;;;;3.54;44.25;97049.91;5058903;28;20814;-66
2021/03/21 06:03:39;;;;;;;8.43;5.23;;;;;;;3.84;43.19;97044.22;5050823;28;20479;-68
2021/03/21 06:06:53;;;;;;;6.63;4.80;;;;;;;3.29;44.72;97032.72;5049860;28;20441;-66
2021/03/21 06:09:40;;;;;;;9.83;5.10;;;;;;;3.79;43.95;97028.16;5044934;28;20498;-65
2021/03/21 06:12:35;;;;;;;4.50;4.07;;;;;;;4.34;42.48;97017.16;5032059;28;20467;-66
2021/03/21 06:15:21;;;;;;;7.17;5.10;;;;;;;4.47;42.13;97017.06;5050558;28;20425;-67
2021/03/21 06:18:23;;;;;;;8.20;5.03;;;;;;;4.29;42.13;97016.69;5036476;28;20448;-67
2021/03/21 06:21:08;;;;;;;7.43;4.97;;;;;;;4.45;41.79;97019.75;5050587;28;20418;-66
2021/03/21 06:23:53;;;;;;;5.93;4.57;;;;;;;4.63;42.08;97014.09;5050229;28;20447;-65
2021/03/21 06:26:33;;;;;;;7.03;4.63;;;;;;;4.76;41.27;97025.19;5045133;28;20440;-65
2021/03/21 06:29:07;;;;;;;7.00;4.70;;;;;;;4.64;41.66;97009.72;5070562;28;20455;-65
2021/03/21 06:31:44;;;;;;;6.33;4.30;;;;;;;4.59;42.10;97012.69;5052699;28;20460;-65
2021/03/21 06:34:28;;;;;;;5.80;4.50;;;;;;;4.79;41.79;97025.91;5032591;28;20445;-67
2021/03/21 06:36:57;;;;;;;6.40;4.50;;;;;;;4.00;42.73;97022.34;5049321;28;20452;-67
2021/03/21 06:39:29;;;;;;;6.27;4.47;;;;;;;4.27;42.48;97023.78;5053592;28;21085;-67
2021/03/21 06:42:06;;;;;;;5.67;4.70;;;;;;;4.07;43.35;97022.72;5054734;28;20420;-67
2021/03/21 06:44:51;;;;;;;5.20;4.40;;;;;;;4.12;42.42;97021.41;5054857;28;20810;-67
2021/03/21 06:47:22;;;;;;;7.30;4.67;;;;;;;4.27;42.63;97028.97;5058831;28;20433;-66
2021/03/21 06:50:03;;;;;;;6.60;4.30;;;;;;;4.32;42.79;97021.66;5071783;28;20435;-66
2021/03/21 06:52:42;;;;;;;5.77;4.60;;;;;;;4.06;43.14;97021.06;5063230;28;20807;-66
2021/03/21 06:55:32;;;;;;;6.37;4.40;;;;;;;4.26;42.46;97028.13;5065666;28;20416;-65
2021/03/21 06:58:28;;;;;;;5.67;4.80;;;;;;;4.31;42.83;97027.78;5060256;28;20531;-66
2021/03/21 07:01:20;;;;;;;5.70;4.40;;;;;;;4.32;43.32;97013.06;5063521;28;20425;-67
2021/03/21 07:04:24;;;;;;;6.90;4.83;;;;;;;4.06;43.45;97021.06;5073916;28;20452;-67
2021/03/21 07:07:19;;;;;;;5.40;4.37;;;;;;;4.25;43.43;97020.47;5064535;28;20455;-66
2021/03/21 07:09:45;;;;;;;5.13;4.30;;;;;;;4.27;42.84;97014.22;5071414;28;20424;-66
2021/03/21 07:12:16;;;;;;;6.50;4.77;;;;;;;4.13;43.43;97007.50;5074295;28;20482;-66
2021/03/21 07:14:54;;;;;;;8.37;4.77;;;;;;;4.14;43.55;97009.16;5074003;28;20189;-67
2021/03/21 07:17:19;;;;;;;8.47;4.03;;;;;;;4.20;43.60;97007.03;5060245;28;20970;-67
2021/03/21 07:20:19;;;;;;;5.70;4.63;;;;;;;4.45;43.05;97001.59;5074596;28;20485;-66
2021/03/21 07:23:18;;;;;;;4.60;4.10;;;;;;;3.81;43.99;97002.97;5073892;28;20182;-67
2021/03/21 07:26:11;;;;;;;8.33;5.30;;;;;;;4.18;43.22;97006.31;5069603;28;20565;-66
2021/03/21 07:29:31;;;;;;;7.27;4.47;;;;;;;4.13;43.82;96999.72;5073623;28;20786;-67
2021/03/21 07:31:59;;;;;;;7.40;4.60;;;;;;;4.13;43.16;97002.31;5010483;28;20461;-69
2021/03/21 07:35:07;;;;;;;10.30;4.90;;;;;;;4.09;43.54;96993.09;5058529;28;20425;-65
2021/03/21 07:37:57;;;;;;;9.90;4.30;;;;;;;4.54;43.03;97005.25;5055028;28;20438;-68
2021/03/21 07:40:47;;;;;;;7.90;4.37;;;;;;;4.23;44.00;97015.38;5061450;28;20724;-67
2021/03/21 07:43:41;;;;;;;9.10;4.37;;;;;;;4.21;43.70;97008.69;5072924;28;20416;-65
2021/03/21 07:46:30;;;;;;;5.97;4.27;;;;;;;4.58;43.28;97004.09;5056844;28;20432;-66
2021/03/21 07:49:21;;;;;;;5.03;4.37;;;;;;;4.11;44.36;97011.97;5056447;28;20589;-66
2021/03/21 07:51:49;;;;;;;5.77;4.20;;;;;;;4.36;43.85;97011.84;5074030;28;21068;-65
2021/03/21 07:54:34;;;;;;;9.80;5.83;;;;;;;4.41;43.25;97014.94;5074188;28;20412;-66
2021/03/21 07:57:26;;;;;;;10.13;4.87;;;;;;;4.17;44.09;97017.63;5072945;28;20536;-66
2021/03/21 07:59:51;;;;;;;7.13;4.70;;;;;;;3.98;44.87;97009.47;5040717;28;20425;-66
2021/03/21 08:02:22;;;;;;;6.60;5.10;;;;;;;4.19;44.63;97002.78;5069652;28;20421;-65
2021/03/21 08:04:49;;;;;;;7.43;4.57;;;;;;;4.16;44.88;97001.25;5065255;28;20720;-65
2021/03/21 08:07:32;;;;;;;5.70;4.80;;;;;;;4.54;44.24;96997.47;5069658;28;20440;-66
2021/03/21 08:09:58;;;;;;;5.60;4.30;;;;;;;4.95;43.94;96996.94;5089340;28;20436;-66
2021/03/21 08:12:33;;;;;;;8.37;4.50;;;;;;;4.87;43.13;96998.34;5047801;28;20460;-66
2021/03/21 08:15:06;;;;;;;6.90;4.03;;;;;;;4.50;43.71;96992.63;5066922;28;20487;-67
2021/03/21 08:17:41;;;;;;;6.27;4.20;;;;;;;4.56;44.21;96994.75;5067435;28;20436;-66
2021/03/21 08:20:24;;;;;;;6.30;4.40;;;;;;;4.85;43.49;97000.25;5072811;28;20440;-67
2021/03/21 08:22:50;;;;;;;4.80;4.20;;;;;;;5.16;43.03;96991.81;5071794;28;20957;-66
2021/03/21 08:25:28;;;;;;;7.93;5.03;;;;;;;5.13;42.53;96995.44;5060032;28;20780;-65
2021/03/21 08:27:55;;;;;;;4.83;3.90;;;;;;;5.34;43.08;96992.91;5068725;28;20876;-67
2021/03/21 08:30:23;;;;;;;6.30;4.00;;;;;;;4.80;44.11;96983.38;5072085;28;20417;-68
2021/03/21 08:33:02;;;;;;;5.70;4.40;;;;;;;4.97;43.00;96979.47;5072620;28;20503;-66
2021/03/21 08:35:30;;;;;;;9.90;4.30;;;;;;;4.88;43.98;96965.44;5063818;28;20471;-67
2021/03/21 08:37:58;;;;;;;4.83;3.90;;;;;;;4.89;44.02;96967.91;5072112;28;20441;-66
2021/03/21 08:40:30;;;;;;;7.23;5.17;;;;;;;5.20;43.35;96957.66;5063516;28;20430;-65
2021/03/21 08:43:09;;;;;;;7.30;4.70;;;;;;;4.93;43.17;96963.28;5030403;28;20928;-68
2021/03/21 08:45:46;;;;;;;10.40;4.70;;;;;;;4.64;43.91;96963.84;5072650;28;20424;-66
2021/03/21 08:48:13;;;;;;;8.40;4.67;;;;;;;4.97;43.36;96954.31;5055109;28;20444;-66
2021/03/21 08:50:38;;;;;;;7.17;4.43;;;;;;;4.68;43.78;96967.81;5072706;28;20429;-65
2021/03/21 08:53:05;;;;;;;5.70;4.70;;;;;;;4.89;43.46;96959.28;5065054;28;20457;-66
2021/03/21 08:55:34;;;;;;;7.07;4.53;;;;;;;4.59;44.11;96946.03;5072512;28;20193;-65
2021/03/21 08:58:23;;;;;;;7.33;4.57;;;;;;;5.03;43.53;96933.03;5065649;28;20448;-68
2021/03/21 09:00:49;;;;;;;5.60;4.10;;;;;;;4.81;44.36;96935.69;5072751;28;20425;-66
2021/03/21 09:03:33;;;;;;;9.40;5.13;;;;;;;5.25;43.64;96931.28;5073380;28;20439;-65
2021/03/21 09:05:59;;;;;;;6.70;4.67;;;;;;;4.82;44.18;96939.94;5072872;28;20194;-67
2021/03/21 09:08:28;;;;;;;6.20;4.40;;;;;;;5.11;43.18;96931.59;5072508;28;20457;-66
2021/03/21 09:11:04;;;;;;;7.43;4.43;;;;;;;4.73;43.46;96941.50;5072246;28;20436;-66
2021/03/21 09:13:35;;;;;;;7.07;4.60;;;;;;;4.90;43.24;96935.78;5071351;28;20405;-66
2021/03/21 09:16:04;;;;;;;7.90;5.10;;;;;;;4.96;43.81;96944.84;5067438;28;20433;-67
2021/03/21 09:18:39;;;;;;;8.10;5.43;;;;;;;4.73;44.16;96942.34;5071914;28;20447;-66
2021/03/21 09:21:24;;;;;;;5.30;4.30;;;;;;;5.02;42.99;96954.78;5069948;28;20447;-66
2021/03/21 09:23:59;;;;;;;9.90;4.47;;;;;;;4.94;43.20;96953.72;5047719;28;20436;-68
2021/03/21 09:26:38;;;;;;;8.57;5.00;;;;;;;5.22;43.43;96957.50;5050814;28;20444;-66
2021/03/21 09:29:36;;;;;;;8.23;5.30;;;;;;;4.88;43.51;96955.03;5053863;28;20444;-67
2021/03/21 09:32:06;;;;;;;7.80;4.70;;;;;;;4.78;44.31;96952.34;4994387;28;20518;-67
2021/03/21 09:34:50;;;;;;;7.57;5.03;;;;;;;5.12;43.07;96948.81;5008838;28;20508;-68
2021/03/21 09:37:20;;;;;;;5.73;4.67;;;;;;;5.20;43.27;96957.66;5021371;28;20486;-66
2021/03/21 09:40:42;;;;;;;6.20;4.67;;;;;;;5.30;43.03;96960.31;5028766;28;20503;-68
2021/03/21 09:43:10;;;;;;;7.57;4.53;;;;;;;5.63;42.43;96955.91;4909333;29;20437;-69
2021/03/21 09:45:36;;;;;;;11.17;6.90;;;;;;;5.69;42.10;96960.56;4909156;29;20440;-71
2021/03/21 09:48:04;;;;;;;10.43;6.50;;;;;;;5.88;41.77;96958.22;4914771;29;21053;-69
2021/03/21 09:50:46;;;;;;;9.13;4.93;;;;;;;5.47;42.39;96961.53;4916385;29;20194;-66
2021/03/21 09:53:27;;;;;;;8.17;5.47;;;;;;;5.80;41.99;96959.69;4908876;29;20466;-67
2021/03/21 09:55:54;;;;;;;9.10;5.60;;;;;;;6.12;41.81;96955.34;4912947;29;20451;-68
2021/03/21 09:58:49;;;;;;;6.67;4.70;;;;;;;5.87;41.52;96960.00;4916368;29;20572;-69
2021/03/21 10:01:33;;;;;;;8.50;5.20;;;;;;;5.92;42.35;96954.41;4896958;29;20424;-66
2021/03/21 10:04:13;;;;;;;6.80;5.30;;;;;;;5.51;41.85;96957.72;4912142;29;20951;-67
2021/03/21 10:06:40;;;;;;;7.33;4.90;;;;;;;5.68;42.31;96966.72;4915271;29;20432;-69
2021/03/21 10:09:18;;;;;;;6.23;4.97;;;;;;;5.90;42.08;96958.91;4949883;29;20481;-69
2021/03/21 10:11:47;;;;;;;8.57;5.73;;;;;;;6.13;41.62;96957.00;4958766;28;20466;-68
2021/03/21 10:14:35;;;;;;;11.60;5.97;;;;;;;6.04;41.70;96957.78;5009272;28;20524;-68
2021/03/21 10:17:21;;;;;;;9.50;5.53;;;;;;;5.63;42.60;96948.09;5030720;28;20529;-66
2021/03/21 10:19:47;;;;;;;8.30;6.17;;;;;;;5.86;43.03;96947.94;5050158;28;20426;-68
2021/03/21 10:22:18;;;;;;;9.33;6.53;;;;;;;5.72;45.94;96956.06;5056054;28;20744;-66
2021/03/21 10:24:47;;;;;;;15.63;8.83;;;;;;;5.74;47.08;96957.59;5051936;28;20501;-66
2021/03/21 10:27:23;;;;;;;15.03;9.10;;;;;;;5.65;49.01;96963.56;5057912;28;20432;-66
2021/03/21 10:30:08;;;;;;;11.53;8.50;;;;;;;5.43;49.72;96964.50;5052510;28;20437;-68
2021/03/21 10:32:36;;;;;;;12.20;8.13;;;;;;;5.68;48.62;96964.13;5052786;28;20553;-67
2021/03/21 10:35:04;;;;;;;12.00;8.37;;;;;;;5.84;48.21;96950.69;5056571;28;20516;-68
2021/03/21 10:37:42;;;;;;;11.97;7.80;;;;;;;6.02;47.88;96944.09;5058863;28;20437;-67
2021/03/21 10:40:10;;;;;;;9.57;7.37;;;;;;;6.11;47.27;96953.72;5056949;28;20423;-67
2021/03/21 10:42:57;;;;;;;11.50;8.30;;;;;;;5.71;48.62;96941.41;5054708;28;20479;-67
2021/03/21 10:45:31;;;;;;;15.10;9.27;;;;;;;5.93;48.75;96924.84;5069477;28;20436;-66
2021/03/21 10:47:59;;;;;;;13.13;7.97;;;;;;;5.98;48.25;96933.09;5061789;28;20486;-65
2021/03/21 10:50:27;;;;;;;12.80;8.23;;;;;;;6.33;48.52;96941.44;5071227;28;20424;-65
2021/03/21 10:53:21;;;;;;;12.17;8.83;;;;;;;6.20;50.56;96934.69;5071297;28;21069;-67
2021/03/21 10:56:09;;;;;;;13.97;10.50;;;;;;;5.51;54.74;96928.31;5069958;28;20428;-66
2021/03/21 10:58:35;;;;;;;15.97;9.67;;;;;;;5.55;55.35;96937.50;5073604;28;20447;-67
2021/03/21 11:01:19;;;;;;;18.20;9.97;;;;;;;5.96;54.63;96935.00;5064565;28;20429;-68
2021/03/21 11:03:49;;;;;;;14.67;8.90;;;;;;;5.90;54.73;96940.69;5055667;28;20186;-68
2021/03/21 11:06:17;;;;;;;17.00;12.07;;;;;;;5.89;54.95;96936.44;5052671;28;20426;-68
2021/03/21 11:08:42;;;;;;;18.60;12.30;;;;;;;5.71;55.64;96936.22;5056458;28;20446;-68
2021/03/21 11:11:20;;;;;;;21.33;10.90;;;;;;;5.83;55.62;96935.19;5088890;28;20506;-68
2021/03/21 11:13:46;;;;;;;18.93;12.23;;;;;;;5.81;55.03;96921.47;5076895;28;20205;-69
2021/03/21 11:16:15;;;;;;;17.20;11.80;;;;;;;5.92;54.51;96911.00;5086083;28;20435;-68
2021/03/21 11:18:49;;;;;;;15.43;11.17;;;;;;;6.55;53.29;96912.59;5052634;28;20871;-68
2021/03/21 11:21:15;;;;;;;16.50;11.90;;;;;;;6.15;53.42;96909.06;5063225;28;20449;-67
2021/03/21 11:23:47;;;;;;;14.40;10.70;;;;;;;6.16;52.35;96902.09;5060539;28;20434;-68
2021/03/21 11:26:22;;;;;;;14.37;10.47;;;;;;;6.34;50.71;96909.25;5045527;28;20290;-68
2021/03/21 11:28:48;;;;;;;13.50;9.43;;;;;;;6.17;50.89;96915.94;5053576;28;20483;-67
2021/03/21 11:31:38;;;;;;;14.43;9.93;;;;;;;6.19;51.07;96899.22;5028632;28;20441;-70
2021/03/21 11:34:25;;;;;;;13.40;9.90;;;;;;;6.13;50.77;96912.78;5051844;28;20448;-68
2021/03/21 11:37:02;;;;;;;12.70;8.13;;;;;;;6.11;50.76;96906.88;5044319;28;20539;-68
2021/03/21 11:39:37;;;;;;;11.37;8.90;;;;;;;6.18;50.45;96900.16;5056852;28;20455;-69
2021/03/21 11:42:19;;;;;;;14.10;8.80;;;;;;;6.84;49.06;96893.59;5090880;28;20421;-68
2021/03/21 11:44:48;;;;;;;15.30;9.80;;;;;;;7.03;48.67;96891.97;5066274;28;20422;-68
2021/03/21 11:47:25;;;;;;;14.40;8.83;;;;;;;6.69;49.47;96895.78;5063650;28;20445;-69
2021/03/21 11:49:51;;;;;;;12.50;8.73;;;;;;;7.26;48.79;96891.66;5055355;28;20435;-68
2021/03/21 11:52:17;;;;;;;11.93;8.93;;;;;;;6.47;49.98;96899.44;5056115;28;21169;-71
2021/03/21 11:54:44;;;;;;;11.97;8.93;;;;;;;6.89;49.53;96896.63;5042244;28;20425;-69
2021/03/21 11:57:13;;;;;;;11.33;8.40;;;;;;;6.58;50.33;96893.31;5055347;28;20449;-68
2021/03/21 11:59:46;;;;;;;12.93;8.90;;;;;;;6.76;50.01;96899.47;5071862;28;20870;-70
2021/03/21 12:02:39;;;;;;;9.90;7.67;;;;;;;6.60;51.30;96907.81;5073043;28;20948;-68
2021/03/21 12:05:12;;;;;;;11.63;7.30;;;;;;;6.66;51.40;96905.66;5074582;28;20433;-68
2021/03/21 12:07:38;;;;;;;12.00;7.90;;;;;;;6.82;50.59;96900.72;5050469;28;20440;-68
2021/03/21 12:10:04;;;;;;;10.27;7.47;;;;;;;6.69;51.94;96894.94;5065511;28;20439;-67
2021/03/21 12:12:34;;;;;;;10.33;7.00;;;;;;;6.70;52.24;96892.22;5068620;28;20541;-68
2021/03/21 12:14:59;;;;;;;13.50;7.80;;;;;;;6.72;52.07;96898.13;5073742;28;20428;-67
2021/03/21 12:17:25;;;;;;;9.73;8.17;;;;;;;6.79;52.25;96906.22;5072175;28;20535;-68
2021/03/21 12:19:53;;;;;;;10.43;7.73;;;;;;;6.73;52.34;96902.38;5072182;28;20202;-68